Time;durP1;ratioP1;P1;durP2;ratioP2;P2;SDS_P1;SDS_P2;PMS_P1;PMS_P2;Temp;Humidity;BMP_temperature;BMP_pressure;BME280_temperature;BME280_humidity;BME280_pressure;Samples;Min_cycle;Max_cycle;Signal;HPM_P1;HPM_P2
2023/01/01 00:00:55;;;;;;;4.75;2.45;;;;;;;13.46;67.26;98331.47;4200432;28;20049;-77
2023/01/01 00:02:56;;;;;;;5.13;2.55;;;;;;;13.47;69.67;98328.28;4202022;28;20490;-77
2023/01/01 00:04:56;;;;;;;5.10;2.55;;;;;;;13.45;67.83;98333.47;4202195;28;20495;-77
2023/01/01 00:06:56;;;;;;;6.00;2.22;;;;;;;13.48;66.97;98341.00;4203169;28;20110;-77
2023/01/01 00:11:16;;;;;;;5.45;2.28;;;;;;;13.54;66.84;98343.38;4200159;28;20051;-77
2023/01/01 00:13:16;;;;;;;4.45;2.03;;;;;;;13.44;67.43;98336.66;4199840;28;20044;-76
2023/01/01 00:15:17;;;;;;;4.03;2.30;;;;;;;13.49;66.26;98339.81;4200523;28;20042;-77
2023/01/01 00:17:17;;;;;;;3.80;2.20;;;;;;;13.53;69.41;98336.22;4202110;28;20387;-77
2023/01/01 00:19:18;;;;;;;5.80;2.63;;;;;;;13.35;67.65;98348.19;4198173;28;20058;-77
2023/01/01 00:21:18;;;;;;;5.00;2.20;;;;;;;13.30;68.42;98348.56;4195834;28;20380;-77
2023/01/01 00:23:18;;;;;;;5.18;2.20;;;;;;;13.33;67.05;98347.00;4201135;28;20113;-77
2023/01/01 00:25:19;;;;;;;4.57;1.90;;;;;;;13.31;69.27;98354.91;4202289;28;20036;-77
2023/01/01 00:27:19;;;;;;;3.95;2.03;;;;;;;13.38;68.46;98358.47;4202297;28;20047;-77
2023/01/01 00:29:19;;;;;;;4.72;2.25;;;;;;;13.49;66.18;98356.50;4185149;28;20472;-77
2023/01/01 00:31:21;;;;;;;4.05;2.10;;;;;;;13.61;65.48;98349.72;4196840;28;20575;-77
2023/01/01 00:33:21;;;;;;;4.00;2.20;;;;;;;13.63;65.87;98346.53;4198477;28;20048;-77
2023/01/01 00:35:25;;;;;;;4.00;2.13;;;;;;;13.63;66.63;98354.84;4202576;28;20237;-77
2023/01/01 00:37:27;;;;;;;6.50;2.53;;;;;;;13.63;65.40;98357.63;4199929;28;20430;-77
2023/01/01 00:39:27;;;;;;;4.07;2.10;;;;;;;13.60;65.76;98361.22;4201256;28;20044;-77
2023/01/01 00:41:28;;;;;;;5.28;2.90;;;;;;;13.58;65.31;98355.28;4194231;28;20286;-77
2023/01/01 00:43:29;;;;;;;4.90;2.20;;;;;;;13.68;65.08;98362.81;4200614;28;20051;-77
2023/01/01 00:45:29;;;;;;;4.90;2.03;;;;;;;13.62;66.89;98353.28;4200901;28;20036;-77
2023/01/01 00:47:29;;;;;;;3.53;2.47;;;;;;;13.59;64.81;98352.09;4201092;28;20306;-77
2023/01/01 00:49:30;;;;;;;5.70;2.40;;;;;;;13.55;65.16;98356.88;4202529;28;20311;-77
2023/01/01 00:51:30;;;;;;;5.60;2.33;;;;;;;13.52;66.60;98363.22;4199983;28;20520;-77
2023/01/01 00:53:30;;;;;;;3.58;2.03;;;;;;;13.60;64.52;98344.56;4194195;28;20050;-77
2023/01/01 00:55:31;;;;;;;5.90;2.45;;;;;;;13.59;65.77;98360.44;4202209;28;20387;-77
2023/01/01 00:57:31;;;;;;;5.82;2.40;;;;;;;13.60;64.16;98364.81;4200508;28;20053;-77
2023/01/01 00:59:31;;;;;;;10.68;2.40;;;;;;;13.61;65.35;98371.16;4201569;28;20043;-77
2023/01/01 01:01:33;;;;;;;9.43;2.58;;;;;;;13.62;64.35;98365.19;4198915;28;20040;-77
2023/01/01 01:03:33;;;;;;;4.85;2.10;;;;;;;13.68;64.46;98371.13;4196240;28;20052;-77
2023/01/01 01:05:36;;;;;;;6.78;2.63;;;;;;;13.66;64.03;98377.09;4193691;28;20050;-77
2023/01/01 01:07:37;;;;;;;4.50;2.50;;;;;;;13.65;65.58;98371.94;4200453;28;20058;-77
2023/01/01 01:09:38;;;;;;;5.30;2.17;;;;;;;13.64;64.44;98375.91;4202378;28;20075;-77
2023/01/01 01:11:38;;;;;;;6.47;1.98;;;;;;;13.56;66.01;98371.56;4199911;28;20669;-77
2023/01/01 01:13:40;;;;;;;6.32;2.40;;;;;;;13.59;65.46;98370.78;4199627;28;20087;-77
2023/01/01 01:15:40;;;;;;;6.60;2.33;;;;;;;13.55;66.15;98358.84;4200461;28;20092;-77
2023/01/01 01:17:40;;;;;;;5.07;2.42;;;;;;;13.47;66.41;98375.53;4189387;28;20114;-77
2023/01/01 01:19:41;;;;;;;5.13;2.20;;;;;;;13.39;68.25;98382.31;4197789;28;20087;-77
2023/01/01 01:21:41;;;;;;;6.07;2.22;;;;;;;13.38;65.94;98386.28;4201344;28;20475;-77
2023/01/01 01:23:42;;;;;;;3.67;2.33;;;;;;;13.40;68.04;98370.00;4193454;28;20050;-77
2023/01/01 01:25:42;;;;;;;5.53;2.60;;;;;;;13.34;67.13;98382.72;4197499;28;20487;-76
2023/01/01 01:27:42;;;;;;;6.47;1.90;;;;;;;13.34;66.60;98401.38;4200710;28;20427;-77
2023/01/01 01:29:43;;;;;;;7.22;2.03;;;;;;;13.38;68.34;98377.94;4201163;28;20036;-77
2023/01/01 01:31:43;;;;;;;3.45;1.98;;;;;;;13.32;67.48;98373.19;4200775;28;20089;-77
2023/01/01 01:33:45;;;;;;;5.15;1.92;;;;;;;13.26;66.70;98366.47;4200925;28;20417;-77
2023/01/01 01:35:50;;;;;;;3.67;2.30;;;;;;;13.19;67.31;98359.72;4199933;28;20059;-77
2023/01/01 01:37:51;;;;;;;6.60;2.15;;;;;;;13.18;67.11;98368.41;4198420;28;20474;-77
2023/01/01 01:39:51;;;;;;;4.75;2.08;;;;;;;13.27;66.15;98363.28;4200003;28;20399;-77
2023/01/01 01:41:51;;;;;;;3.50;2.08;;;;;;;13.32;66.34;98362.88;4200304;28;20213;-77
2023/01/01 01:43:59;;;;;;;3.35;2.08;;;;;;;13.33;66.78;98356.13;4199979;28;20071;-77
2023/01/01 01:46:15;;;;;;;5.05;1.95;;;;;;;13.34;65.46;98360.50;4201517;28;20105;-77
2023/01/01 01:48:15;;;;;;;5.97;2.30;;;;;;;13.44;64.78;98361.66;4196128;28;20431;-77
2023/01/01 01:50:21;;;;;;;5.35;2.30;;;;;;;13.51;64.51;98360.84;4200245;28;20036;-77
2023/01/01 01:52:21;;;;;;;6.82;2.10;;;;;;;13.46;66.23;98365.63;4200505;28;20094;-77
2023/01/01 01:54:26;;;;;;;5.75;2.45;;;;;;;13.41;66.75;98356.91;4197053;28;20522;-77
2023/01/01 01:56:55;;;;;;;4.20;1.92;;;;;;;13.45;65.24;98366.81;4199334;28;20044;-77
2023/01/01 01:58:56;;;;;;;4.63;1.92;;;;;;;13.38;65.67;98346.59;4187993;28;20043;-77
2023/01/01 02:00:57;;;;;;;3.70;2.10;;;;;;;13.30;66.75;98356.91;4199662;28;20478;-77
2023/01/01 02:03:05;;;;;;;3.10;1.83;;;;;;;13.20;67.47;98354.94;4197960;28;20287;-77
2023/01/01 02:05:06;;;;;;;5.18;2.10;;;;;;;13.15;67.29;98358.88;4200506;28;20048;-77
2023/01/01 02:07:07;;;;;;;7.35;2.20;;;;;;;13.24;66.15;98343.81;4199771;28;20052;-77
2023/01/01 02:09:08;;;;;;;5.78;2.20;;;;;;;13.26;66.81;98347.00;4200856;28;20091;-77
2023/01/01 02:11:08;;;;;;;5.10;2.30;;;;;;;13.20;66.26;98347.41;4199770;28;20105;-77
2023/01/01 02:13:09;;;;;;;5.40;2.47;;;;;;;13.28;65.46;98352.94;4199187;28;20056;-77
2023/01/01 02:15:10;;;;;;;3.45;2.00;;;;;;;13.22;66.08;98349.78;4197937;28;20051;-77
2023/01/01 02:17:36;;;;;;;4.07;2.05;;;;;;;13.15;66.79;98344.97;4199377;28;20056;-77
2023/01/01 02:19:39;;;;;;;5.18;1.90;;;;;;;13.18;66.31;98344.22;4170922;28;20157;-77
2023/01/01 02:21:53;;;;;;;5.10;2.08;;;;;;;13.09;67.93;98341.03;4205807;28;20123;-77
2023/01/01 02:24:05;;;;;;;6.43;2.63;;;;;;;13.09;66.58;98340.25;4204149;28;20127;-77
2023/01/01 02:26:37;;;;;;;3.45;2.05;;;;;;;13.19;67.70;98345.00;4200882;28;20066;-77
2023/01/01 02:29:00;;;;;;;5.25;2.38;;;;;;;13.15;67.34;98335.84;4203738;28;20076;-76
2023/01/01 02:31:01;;;;;;;5.00;2.20;;;;;;;13.12;66.11;98361.66;4204226;28;20048;-76
2023/01/01 02:33:05;;;;;;;2.65;1.95;;;;;;;13.09;67.67;98356.91;4201511;28;20331;-77
2023/01/01 02:37:32;;;;;;;7.75;3.17;;;;;;;13.16;67.01;98348.59;4203665;28;20067;-76
2023/01/01 02:39:36;;;;;;;6.07;2.72;;;;;;;13.14;67.41;98348.94;4194600;28;20071;-76
2023/01/01 02:41:44;;;;;;;4.50;2.55;;;;;;;13.09;69.15;98354.13;4204628;28;20048;-77
2023/01/01 02:43:44;;;;;;;5.25;2.80;;;;;;;13.06;68.42;98341.03;4194738;28;20051;-77
2023/01/01 02:45:45;;;;;;;5.00;2.63;;;;;;;13.09;67.93;98343.03;4204154;28;20403;-76
2023/01/01 02:47:46;;;;;;;6.90;2.70;;;;;;;13.05;67.94;98345.00;4202232;28;20036;-77
2023/01/01 02:49:57;;;;;;;4.57;2.53;;;;;;;13.08;68.29;98347.00;4204892;28;20122;-76
2023/01/01 02:52:03;;;;;;;5.93;2.55;;;;;;;13.06;67.48;98361.25;4203664;28;20051;-77
2023/01/01 02:54:13;;;;;;;5.93;3.30;;;;;;;13.11;67.38;98343.41;4201220;28;20048;-76
2023/01/01 02:56:23;;;;;;;6.82;3.00;;;;;;;13.10;67.14;98347.38;4203493;28;20478;-77
2023/01/01 03:01:22;;;;;;;6.55;3.28;;;;;;;13.04;67.97;98340.63;4201923;28;20849;-76
2023/01/01 03:03:40;;;;;;;4.50;2.65;;;;;;;13.02;66.16;98345.81;4202480;28;20044;-77
2023/01/01 03:06:26;;;;;;;5.88;2.95;;;;;;;13.08;66.40;98345.00;4202272;28;20060;-77
2023/01/01 03:08:42;;;;;;;5.82;2.50;;;;;;;12.98;67.76;98343.00;4194727;28;20491;-77
2023/01/01 03:11:06;;;;;;;5.72;3.30;;;;;;;12.95;67.31;98338.25;4202721;28;20047;-77
2023/01/01 03:13:15;;;;;;;6.38;2.88;;;;;;;12.99;67.65;98349.34;4201560;28;20053;-76
2023/01/01 03:15:31;;;;;;;5.55;2.95;;;;;;;13.03;67.89;98339.06;4202418;28;20418;-76
2023/01/01 03:17:37;;;;;;;6.68;2.60;;;;;;;13.03;67.52;98342.63;4204639;28;20462;-76
2023/01/01 03:19:40;;;;;;;6.43;3.25;;;;;;;13.08;68.45;98341.44;4204690;28;20493;-77
2023/01/01 03:21:46;;;;;;;8.43;3.58;;;;;;;13.05;69.44;98343.00;4203839;28;20044;-76
2023/01/01 03:23:53;;;;;;;5.07;3.13;;;;;;;12.98;68.84;98340.22;4187809;28;20052;-76
2023/01/01 03:25:58;;;;;;;4.65;2.83;;;;;;;13.00;68.67;98343.44;4202652;28;20456;-77
2023/01/01 03:28:04;;;;;;;4.93;2.80;;;;;;;13.00;68.15;98332.31;4204749;28;20051;-76
2023/01/01 03:30:07;;;;;;;5.78;3.22;;;;;;;13.03;67.96;98330.72;4203176;28;20452;-76
2023/01/01 03:32:13;;;;;;;6.78;3.15;;;;;;;13.03;67.62;98330.72;4194223;28;20041;-76
2023/01/01 03:34:20;;;;;;;5.60;2.95;;;;;;;13.02;68.22;98335.50;4200936;28;20032;-76
2023/01/01 03:36:26;;;;;;;5.00;2.78;;;;;;;13.03;68.32;98339.84;4203683;28;22953;-77
2023/01/01 03:38:34;;;;;;;5.93;3.22;;;;;;;13.04;68.71;98358.09;4204084;28;20090;-76
2023/01/01 03:40:37;;;;;;;4.65;3.00;;;;;;;13.05;68.68;98351.34;4203734;28;20040;-76
2023/01/01 03:42:44;;;;;;;6.22;3.30;;;;;;;13.10;68.20;98358.50;4203321;28;20132;-76
2023/01/01 03:44:49;;;;;;;4.32;2.50;;;;;;;13.14;67.74;98362.06;4203362;28;20059;-76
2023/01/01 03:46:49;;;;;;;4.63;2.78;;;;;;;13.18;67.06;98351.75;4201092;28;20044;-76
2023/01/01 03:48:56;;;;;;;7.90;3.03;;;;;;;13.16;67.63;98360.47;4203076;28;20418;-76
2023/01/01 03:51:18;;;;;;;5.47;3.22;;;;;;;13.24;66.84;98357.72;4204532;28;20051;-76
2023/01/01 03:53:42;;;;;;;5.28;3.00;;;;;;;13.21;69.02;98339.84;4201684;28;20040;-77
2023/01/01 03:55:48;;;;;;;5.05;2.80;;;;;;;13.10;68.56;98337.06;4200813;28;20055;-76
2023/01/01 03:57:58;;;;;;;6.82;3.17;;;;;;;13.03;69.35;98347.38;4204695;28;20052;-76
2023/01/01 04:00:13;;;;;;;5.53;3.05;;;;;;;13.12;67.45;98348.56;4201215;28;20437;-76
2023/01/01 04:02:18;;;;;;;6.40;3.75;;;;;;;13.16;67.72;98351.38;4203631;28;20457;-76
2023/01/01 04:04:19;;;;;;;4.65;2.58;;;;;;;13.17;67.00;98353.72;4202722;28;20032;-76
2023/01/01 04:06:20;;;;;;;5.97;2.85;;;;;;;13.18;67.07;98349.75;4201218;28;20119;-76
2023/01/01 04:08:21;;;;;;;4.45;2.80;;;;;;;13.18;67.17;98348.97;4203983;28;20040;-76
2023/01/01 04:10:23;;;;;;;4.60;3.10;;;;;;;13.21;66.35;98343.44;4202645;28;20044;-76
2023/01/01 04:12:24;;;;;;;4.90;2.85;;;;;;;13.26;66.04;98341.44;4202002;28;20484;-76
2023/01/01 04:14:29;;;;;;;6.05;3.28;;;;;;;13.26;65.74;98355.34;4202277;28;20048;-76
2023/01/01 04:16:29;;;;;;;5.32;2.90;;;;;;;13.26;66.38;98345.03;4199997;28;20346;-76
2023/01/01 04:18:30;;;;;;;5.03;2.83;;;;;;;13.23;66.42;98348.56;4201858;28;20051;-76
2023/01/01 04:20:30;;;;;;;4.18;2.80;;;;;;;13.26;66.55;98352.56;4204243;28;20048;-76
2023/01/01 04:22:31;;;;;;;5.20;3.13;;;;;;;13.20;66.32;98349.38;4202332;28;20044;-76
2023/01/01 04:24:31;;;;;;;4.57;2.95;;;;;;;13.21;66.21;98348.97;4203945;28;20047;-76
2023/01/01 04:26:32;;;;;;;4.97;3.80;;;;;;;13.14;67.18;98354.50;4202173;28;20039;-76
2023/01/01 04:28:32;;;;;;;4.82;2.97;;;;;;;13.09;68.08;98345.81;4201854;28;20488;-76
2023/01/01 04:30:32;;;;;;;4.75;3.10;;;;;;;13.02;69.01;98346.59;4203200;28;20063;-76
2023/01/01 04:32:33;;;;;;;5.10;2.88;;;;;;;12.93;68.09;98349.78;4200474;28;20352;-76
2023/01/01 04:34:33;;;;;;;4.55;3.10;;;;;;;12.91;68.93;98349.38;4203776;28;20040;-76
2023/01/01 04:36:34;;;;;;;5.28;2.90;;;;;;;13.01;67.70;98347.00;4203527;28;20048;-76
2023/01/01 04:38:35;;;;;;;6.18;3.35;;;;;;;13.04;67.90;98366.44;4202291;28;20216;-76
2023/01/01 04:40:36;;;;;;;4.93;2.88;;;;;;;13.09;67.84;98368.81;4202933;28;20356;-76
2023/01/01 04:42:36;;;;;;;3.92;2.83;;;;;;;13.06;66.84;98360.47;4200810;28;20046;-76
2023/01/01 04:44:37;;;;;;;4.13;2.40;;;;;;;13.07;66.72;98362.06;4200803;28;20055;-76
2023/01/01 04:46:37;;;;;;;4.35;2.85;;;;;;;13.02;67.57;98360.47;4200832;28;20063;-76
2023/01/01 04:48:37;;;;;;;4.30;2.65;;;;;;;12.96;67.68;98362.06;4202249;28;20040;-76
2023/01/01 04:50:38;;;;;;;4.18;2.50;;;;;;;12.93;67.50;98366.44;4202088;28;20044;-76
2023/01/01 04:52:38;;;;;;;4.20;2.53;;;;;;;13.03;67.39;98369.59;4197220;28;20043;-76
2023/01/01 04:54:38;;;;;;;5.18;3.00;;;;;;;13.03;66.99;98364.06;4202656;28;20159;-76
2023/01/01 04:56:39;;;;;;;6.18;2.55;;;;;;;12.98;69.34;98368.00;4203570;28;20226;-76
2023/01/01 04:58:41;;;;;;;6.85;3.22;;;;;;;12.98;68.05;98386.66;4202807;28;20095;-76
2023/01/01 05:00:41;;;;;;;4.55;2.63;;;;;;;12.95;67.87;98388.25;4201889;28;20043;-76
2023/01/01 05:02:42;;;;;;;4.20;2.50;;;;;;;12.90;67.97;98383.88;4199076;28;20545;-76
2023/01/01 05:04:42;;;;;;;5.88;2.72;;;;;;;12.92;67.43;98384.28;4200740;28;20102;-76
2023/01/01 05:06:42;;;;;;;7.55;2.85;;;;;;;12.96;67.30;98386.25;4203308;28;20145;-76
2023/01/01 05:08:45;;;;;;;5.45;2.55;;;;;;;13.07;66.58;98392.59;4202929;28;20639;-76
2023/01/01 05:10:45;;;;;;;;;;;;;;;13.04;66.67;98393.41;4204161;28;20080;-76
2023/01/01 05:12:46;;;;;;;4.18;2.60;;;;;;;12.98;67.81;98398.56;4200233;28;20005;-76
2023/01/01 05:14:46;;;;;;;6.03;2.88;;;;;;;13.05;66.78;98395.78;4201735;28;20125;-77
2023/01/01 05:16:46;;;;;;;3.55;2.15;;;;;;;13.01;67.45;98406.13;4200720;28;20044;-76
2023/01/01 05:18:47;;;;;;;3.97;2.55;;;;;;;12.94;67.29;98420.78;4202459;28;20048;-76
2023/01/01 05:20:48;;;;;;;11.15;2.70;;;;;;;12.95;67.66;98435.47;4193136;28;20123;-76
2023/01/01 05:22:48;;;;;;;6.75;3.03;;;;;;;12.96;67.70;98427.91;4201253;28;20040;-76
2023/01/01 05:24:48;;;;;;;4.18;2.40;;;;;;;12.95;68.24;98443.78;4202687;28;20059;-76
2023/01/01 05:26:49;;;;;;;7.07;2.80;;;;;;;12.88;68.36;98433.47;4201177;28;20028;-76
2023/01/01 05:28:50;;;;;;;4.22;2.80;;;;;;;12.85;68.54;98441.78;4201842;28;20550;-76
2023/01/01 05:30:52;;;;;;;4.90;2.58;;;;;;;12.83;68.62;98444.97;4202878;28;20360;-76
2023/01/01 05:32:52;;;;;;;5.15;3.17;;;;;;;12.83;68.62;98435.84;4199473;28;20122;-76
2023/01/01 05:34:53;;;;;;;3.17;2.38;;;;;;;12.78;69.20;98444.56;4196069;28;20068;-76
2023/01/01 05:36:55;;;;;;;4.13;2.75;;;;;;;12.83;69.14;98442.19;4201716;28;20270;-76
2023/01/01 05:38:56;;;;;;;6.93;2.70;;;;;;;12.79;70.89;98446.94;4200446;28;20283;-76
2023/01/01 05:40:57;;;;;;;4.63;2.65;;;;;;;12.72;70.06;98446.91;4201016;28;20050;-76
2023/01/01 05:42:57;;;;;;;6.28;2.50;;;;;;;12.75;69.61;98440.59;4201014;28;20044;-76
2023/01/01 05:44:57;;;;;;;5.28;2.95;;;;;;;12.71;71.30;98445.31;4202514;28;20036;-76
2023/01/01 05:46:58;;;;;;;5.22;2.97;;;;;;;12.70;70.61;98452.06;4201526;28;20361;-76
2023/01/01 05:48:58;;;;;;;4.57;2.60;;;;;;;12.61;71.42;98451.66;4201839;28;20034;-76
2023/01/01 05:51:13;;;;;;;5.35;2.72;;;;;;;12.64;70.66;98454.41;4194097;28;20291;-76
2023/01/01 05:53:14;;;;;;;5.53;3.00;;;;;;;12.61;71.27;98451.66;4198059;28;20050;-76
2023/01/01 05:55:14;;;;;;;4.13;2.70;;;;;;;12.54;71.04;98460.75;4201756;28;20063;-76
2023/01/01 05:57:14;;;;;;;5.03;2.80;;;;;;;12.50;71.71;98471.06;4201749;28;20036;-76
2023/01/01 05:59:15;;;;;;;5.50;2.70;;;;;;;12.54;71.60;98480.16;4201783;28;20238;-76
2023/01/01 06:01:24;;;;;;;5.43;2.50;;;;;;;12.54;71.38;98473.81;4191308;28;20052;-76
2023/01/01 06:03:24;;;;;;;5.45;2.80;;;;;;;12.52;72.61;98482.53;4200977;28;20056;-76
2023/01/01 06:05:25;;;;;;;6.57;3.10;;;;;;;12.52;71.42;98478.97;4216004;28;20044;-76
2023/01/01 06:07:25;;;;;;;4.68;2.70;;;;;;;12.48;71.95;98478.94;4199696;28;20048;-76
2023/01/01 06:09:27;;;;;;;5.32;2.80;;;;;;;12.45;72.02;98481.72;4199956;28;20044;-76
2023/01/01 06:11:28;;;;;;;11.63;3.28;;;;;;;12.42;71.80;98480.53;4200468;28;20712;-76
2023/01/01 06:13:29;;;;;;;5.30;2.72;;;;;;;12.42;71.24;98488.84;4199579;28;20052;-76
2023/01/01 06:15:29;;;;;;;4.25;2.70;;;;;;;12.44;71.91;98485.69;4199728;28;20036;-76
2023/01/01 06:17:29;;;;;;;6.75;2.75;;;;;;;12.43;71.89;98493.22;4201883;28;20137;-76
2023/01/01 06:19:30;;;;;;;4.93;2.75;;;;;;;12.37;71.84;98511.41;4199516;28;20059;-75
2023/01/01 06:21:30;;;;;;;10.52;3.42;;;;;;;12.44;71.21;98513.44;4201233;28;20052;-76
2023/01/01 06:23:30;;;;;;;5.38;2.58;;;;;;;12.44;70.93;98507.88;4197620;28;20367;-76
2023/01/01 06:25:31;;;;;;;4.32;3.17;;;;;;;12.45;70.96;98506.69;4201365;28;20058;-76
2023/01/01 06:27:33;;;;;;;3.78;2.40;;;;;;;12.45;71.34;98509.47;4199750;28;20051;-76
2023/01/01 06:29:33;;;;;;;5.90;2.80;;;;;;;12.41;71.19;98506.66;4200014;28;20079;-76
2023/01/01 06:31:34;;;;;;;6.88;2.72;;;;;;;12.46;70.55;98505.50;4200882;28;20047;-75
2023/01/01 06:33:35;;;;;;;5.80;2.53;;;;;;;12.46;71.56;98505.50;4199414;28;20101;-76
2023/01/01 06:35:35;;;;;;;4.70;2.60;;;;;;;12.45;70.72;98503.91;4203105;28;20198;-76
2023/01/01 06:37:36;;;;;;;5.43;2.55;;;;;;;12.48;71.30;98500.34;4201201;28;20044;-75
2023/01/01 06:39:36;;;;;;;5.50;2.92;;;;;;;12.48;70.21;98492.81;4202853;28;20479;-75
2023/01/01 06:41:37;;;;;;;3.75;2.55;;;;;;;12.46;70.74;98486.09;4192159;28;20100;-76
2023/01/01 06:43:37;;;;;;;5.93;2.70;;;;;;;12.57;69.72;98496.03;4201465;28;20537;-76
2023/01/01 06:45:38;;;;;;;4.47;2.63;;;;;;;12.53;71.14;98505.53;4202351;28;20078;-75
2023/01/01 06:47:38;;;;;;;6.10;2.90;;;;;;;12.49;71.63;98493.63;4199398;28;20047;-75
2023/01/01 06:49:38;;;;;;;4.53;2.22;;;;;;;12.47;70.00;98504.31;4193305;28;20760;-75
2023/01/01 06:51:41;;;;;;;5.40;2.30;;;;;;;12.46;70.72;98509.06;4199540;28;20131;-75
2023/01/01 06:53:41;;;;;;;;;;;;;;;12.48;70.32;98503.13;4200725;28;20044;-75
2023/01/01 06:55:47;;;;;;;6.03;2.70;;;;;;;12.53;69.59;98509.09;4201469;28;20091;-75
2023/01/01 06:57:51;;;;;;;4.28;2.55;;;;;;;12.54;70.06;98507.13;4199879;28;20056;-75
2023/01/01 06:59:51;;;;;;;7.32;2.80;;;;;;;12.49;69.89;98505.50;4201964;28;20517;-76
2023/01/01 07:01:51;;;;;;;7.13;2.70;;;;;;;12.53;69.81;98505.53;4199839;28;20123;-75
2023/01/01 07:03:57;;;;;;;6.03;2.40;;;;;;;12.53;70.05;98500.78;4199755;28;20032;-75
2023/01/01 07:05:58;;;;;;;5.28;2.58;;;;;;;12.47;72.35;98507.88;4202584;28;20040;-75
2023/01/01 07:07:58;;;;;;;4.13;2.60;;;;;;;12.50;70.02;98512.69;4204084;28;20046;-75
2023/01/01 07:09:58;;;;;;;4.43;2.70;;;;;;;12.51;69.97;98514.25;4204125;28;20082;-75
2023/01/01 07:11:59;;;;;;;7.20;2.85;;;;;;;12.53;69.93;98517.44;4204037;28;20044;-75
2023/01/01 07:13:59;;;;;;;5.60;3.00;;;;;;;12.46;69.90;98511.84;4203633;28;20448;-75
2023/01/01 07:16:00;;;;;;;5.70;3.28;;;;;;;12.54;71.55;98516.25;4203413;28;20048;-75
2023/01/01 07:18:00;;;;;;;6.35;2.63;;;;;;;12.42;70.48;98522.16;4204805;28;20428;-76
2023/01/01 07:20:00;;;;;;;3.95;2.47;;;;;;;12.48;69.65;98517.78;4204927;28;20193;-75
2023/01/01 07:22:01;;;;;;;6.18;2.88;;;;;;;12.47;71.23;98507.88;4202068;28;20044;-75
2023/01/01 07:24:04;;;;;;;6.65;2.83;;;;;;;12.50;70.62;98523.78;4201537;28;20040;-75
2023/01/01 07:26:04;;;;;;;7.97;3.20;;;;;;;12.53;70.01;98522.19;4205274;28;20074;-75
2023/01/01 07:28:04;;;;;;;4.95;2.80;;;;;;;12.53;70.79;98516.63;4199467;28;20224;-75
2023/01/01 07:30:06;;;;;;;5.93;2.85;;;;;;;12.45;70.58;98520.56;4202417;28;20029;-75
2023/01/01 07:32:11;;;;;;;5.13;2.55;;;;;;;12.45;70.37;98521.38;4203100;28;20060;-75
2023/01/01 07:34:14;;;;;;;7.03;3.00;;;;;;;12.44;70.82;98524.53;4195029;28;20081;-75
2023/01/01 07:36:15;;;;;;;5.32;3.15;;;;;;;12.45;70.26;98510.25;4200819;28;20050;-75
2023/01/01 07:38:15;;;;;;;7.13;3.13;;;;;;;12.52;69.76;98532.50;4200230;28;20028;-76
2023/01/01 07:40:16;;;;;;;4.85;2.63;;;;;;;12.48;72.24;98531.69;4093766;28;20066;-75
2023/01/01 07:42:16;;;;;;;7.03;2.92;;;;;;;12.50;69.98;98540.44;4194525;28;20404;-75
2023/01/01 07:44:16;;;;;;;3.55;2.40;;;;;;;12.46;70.57;98539.59;4202479;28;20034;-75
2023/01/01 07:46:20;;;;;;;4.07;2.70;;;;;;;12.46;70.94;98558.22;4201981;28;20123;-75
2023/01/01 07:48:21;;;;;;;7.10;2.92;;;;;;;12.47;70.76;98565.38;4204257;28;20040;-76
2023/01/01 07:50:23;;;;;;;6.00;3.35;;;;;;;12.44;71.29;98574.47;4204912;28;20494;-76
2023/01/01 07:52:23;;;;;;;7.38;3.33;;;;;;;12.45;71.06;98581.63;4203681;28;20384;-76
2023/01/01 07:54:23;;;;;;;5.93;3.17;;;;;;;12.43;71.45;98578.44;4204036;28;20040;-75
2023/01/01 07:56:24;;;;;;;4.78;3.10;;;;;;;12.41;70.92;98578.81;4203297;28;20054;-75
2023/01/01 07:58:24;;;;;;;8.55;3.45;;;;;;;12.44;71.57;98585.56;4202874;28;20056;-75
2023/01/01 08:00:25;;;;;;;6.72;3.45;;;;;;;12.44;71.69;98596.69;4202007;28;20101;-75
2023/01/01 08:02:26;;;;;;;7.15;3.53;;;;;;;12.43;71.70;98589.53;4200334;28;20488;-76
2023/01/01 08:04:26;;;;;;;7.45;3.55;;;;;;;12.48;70.96;98597.47;4204901;28;20131;-76
2023/01/01 08:06:26;;;;;;;7.75;4.05;;;;;;;12.53;71.22;98586.81;4203767;28;20036;-75
2023/01/01 08:08:27;;;;;;;7.13;3.13;;;;;;;12.52;71.34;98595.53;4203662;28;20237;-75
2023/01/01 08:10:27;;;;;;;5.45;3.38;;;;;;;12.53;71.45;98602.69;4202602;28;20380;-76
2023/01/01 08:12:27;;;;;;;5.70;3.53;;;;;;;12.53;71.37;98597.13;4202237;28;20044;-75
2023/01/01 08:14:28;;;;;;;8.10;3.63;;;;;;;12.53;71.46;98603.47;4202128;28;20044;-75
2023/01/01 08:16:28;;;;;;;8.18;4.20;;;;;;;12.54;71.32;98607.03;4202643;28;20040;-75
2023/01/01 08:18:29;;;;;;;7.70;3.88;;;;;;;12.55;72.00;98608.63;4203739;28;20055;-75
2023/01/01 08:20:30;;;;;;;8.40;4.30;;;;;;;12.52;71.97;98604.66;4203014;28;20101;-75
2023/01/01 08:22:31;;;;;;;7.80;3.78;;;;;;;12.55;71.78;98605.84;4195018;28;20043;-75
2023/01/01 08:24:31;;;;;;;6.88;4.25;;;;;;;12.53;71.98;98595.13;4203409;28;20040;-75
2023/01/01 08:26:33;;;;;;;9.35;4.05;;;;;;;12.62;72.27;98603.91;4202996;28;20048;-75
2023/01/01 08:28:34;;;;;;;8.25;4.05;;;;;;;12.58;71.57;98602.31;4202895;28;20040;-75
2023/01/01 08:30:35;;;;;;;9.45;4.80;;;;;;;12.60;72.16;98613.81;4202858;28;20044;-75
2023/01/01 08:32:35;;;;;;;5.50;3.80;;;;;;;12.59;72.18;98615.00;4198695;28;20044;-75
2023/01/01 08:34:35;;;;;;;9.75;3.92;;;;;;;12.64;71.91;98611.84;4202215;28;20387;-75
2023/01/01 08:36:38;;;;;;;7.43;3.85;;;;;;;12.67;71.64;98618.63;4203965;28;20381;-75
2023/01/01 08:38:38;;;;;;;6.03;3.80;;;;;;;12.65;71.75;98617.00;4200652;28;20041;-75
2023/01/01 08:40:39;;;;;;;7.40;4.00;;;;;;;12.68;72.19;98621.00;4201436;28;20131;-75
2023/01/01 08:42:39;;;;;;;10.15;3.75;;;;;;;12.70;71.74;98623.38;4203089;28;20123;-75
2023/01/01 08:44:40;;;;;;;8.68;4.45;;;;;;;12.72;72.86;98630.13;4200992;28;20040;-75
2023/01/01 08:46:40;;;;;;;8.82;4.30;;;;;;;12.68;72.89;98637.66;4201106;28;20039;-75
2023/01/01 08:48:40;;;;;;;9.27;4.30;;;;;;;12.68;72.17;98640.44;4201263;28;20054;-75
2023/01/01 08:50:41;;;;;;;8.95;3.85;;;;;;;12.70;72.06;98635.28;4202048;28;20055;-75
2023/01/01 08:52:41;;;;;;;7.28;3.80;;;;;;;12.73;71.87;98637.28;4200283;28;20066;-75
2023/01/01 08:54:42;;;;;;;8.02;4.68;;;;;;;12.74;72.05;98638.84;4200304;28;20540;-75
2023/01/01 08:56:42;;;;;;;7.43;4.10;;;;;;;12.79;72.20;98626.59;4190825;28;20119;-76
2023/01/01 08:58:43;;;;;;;8.48;4.40;;;;;;;12.74;71.75;98632.50;4200482;28;20123;-76
2023/01/01 09:00:43;;;;;;;8.10;4.10;;;;;;;12.73;72.41;98631.72;4200770;28;20460;-75
2023/01/01 09:02:44;;;;;;;10.90;4.90;;;;;;;12.75;72.08;98637.69;4199597;28;20429;-75
2023/01/01 09:04:44;;;;;;;8.18;4.32;;;;;;;12.79;71.59;98637.72;4200416;28;20229;-75
2023/01/01 09:06:44;;;;;;;7.13;4.22;;;;;;;12.82;71.70;98634.94;4199170;28;20048;-75
2023/01/01 09:08:45;;;;;;;7.05;3.70;;;;;;;12.85;71.48;98631.41;4198484;28;20044;-75
2023/01/01 09:10:46;;;;;;;14.48;4.30;;;;;;;12.86;72.01;98623.88;4200143;28;20051;-75
2023/01/01 09:12:46;;;;;;;8.38;4.28;;;;;;;12.89;71.61;98634.97;4199969;28;20478;-75
2023/01/01 09:14:46;;;;;;;9.70;5.07;;;;;;;12.84;71.94;98640.13;4199607;28;20056;-76
2023/01/01 09:16:47;;;;;;;5.75;3.85;;;;;;;12.83;72.12;98619.09;4194023;28;20051;-75
2023/01/01 09:18:48;;;;;;;8.50;4.00;;;;;;;12.86;71.55;98624.66;4197460;28;20396;-75
2023/01/01 09:20:48;;;;;;;14.15;5.30;;;;;;;12.87;71.91;98640.13;4197976;28;20537;-75
2023/01/01 09:22:49;;;;;;;4.82;3.30;;;;;;;12.92;71.63;98637.00;4199946;28;20059;-75
2023/01/01 09:24:49;;;;;;;8.57;3.72;;;;;;;12.96;71.59;98645.31;4198121;28;20075;-75
2023/01/01 09:26:51;;;;;;;9.52;4.43;;;;;;;12.96;71.89;98633.41;4200512;28;20101;-75
2023/01/01 09:28:51;;;;;;;8.85;3.60;;;;;;;12.94;72.63;98620.72;4199273;28;20048;-75
2023/01/01 09:30:52;;;;;;;5.63;3.60;;;;;;;12.92;71.82;98638.97;4200748;28;20596;-75
2023/01/01 09:32:52;;;;;;;10.85;3.75;;;;;;;12.96;72.00;98642.53;4199951;28;20048;-76
2023/01/01 09:34:53;;;;;;;8.55;3.80;;;;;;;12.99;72.11;98655.69;4191476;28;20053;-75
2023/01/01 09:36:53;;;;;;;6.05;3.58;;;;;;;13.04;71.49;98663.63;4199997;28;20852;-75
2023/01/01 09:38:54;;;;;;;8.63;3.70;;;;;;;13.10;71.79;98659.28;4199560;28;20045;-75
2023/01/01 09:41:16;;;;;;;7.10;3.38;;;;;;;13.13;71.45;98663.25;4199951;28;20041;-75
2023/01/01 09:43:44;;;;;;;6.93;3.50;;;;;;;13.15;71.34;98681.13;4198390;28;20044;-75
2023/01/01 09:45:59;;;;;;;8.65;3.70;;;;;;;13.22;70.97;98672.03;4200108;28;20044;-75